createdAt,value
2022-12-24T00:01:06.351Z,2.05
2022-12-24T00:03:34.130Z,2.47
2022-12-24T00:06:05.297Z,1.88
2022-12-24T00:08:32.821Z,1.65
2022-12-24T00:11:01.737Z,3.10
2022-12-24T00:13:29.318Z,3.83
2022-12-24T00:15:56.877Z,3.30
2022-12-24T00:18:24.463Z,2.20
2022-12-24T00:20:52.480Z,2.45
2022-12-24T00:23:20.448Z,1.20
2022-12-24T00:25:48.160Z,1.95
2022-12-24T00:28:18.090Z,3.72
2022-12-24T00:30:45.744Z,3.53
2022-12-24T00:33:13.293Z,6.03
2022-12-24T00:35:41.552Z,2.47
2022-12-24T00:38:09.557Z,3.58
2022-12-24T00:40:37.135Z,4.78
2022-12-24T00:43:04.935Z,3.00
2022-12-24T00:45:33.809Z,1.50
2022-12-24T00:48:01.441Z,2.30
2022-12-24T00:50:29.013Z,2.15
2022-12-24T00:52:56.663Z,2.85
2022-12-24T00:55:24.288Z,4.15
2022-12-24T00:57:51.835Z,3.17
2022-12-24T01:00:19.934Z,6.93
2022-12-24T01:02:49.104Z,2.83
2022-12-24T01:05:20.549Z,3.42
2022-12-24T01:07:49.298Z,2.65
2022-12-24T01:10:20.246Z,4.32
2022-12-24T01:12:48.118Z,4.63
2022-12-24T01:15:18.403Z,3.13
2022-12-24T01:17:45.916Z,1.45
2022-12-24T01:20:17.977Z,3.75
2022-12-24T01:22:45.824Z,5.18
2022-12-24T01:25:13.855Z,2.20
2022-12-24T01:27:41.512Z,1.88
2022-12-24T01:30:14.197Z,2.78
2022-12-24T01:35:10.638Z,1.98
2022-12-24T01:37:39.776Z,3.72
2022-12-24T01:40:27.130Z,3.15
2022-12-24T01:43:12.474Z,2.25
2022-12-24T01:45:49.521Z,4.15
2022-12-24T01:48:29.814Z,6.57
2022-12-24T01:51:03.516Z,7.47
2022-12-24T01:53:35.620Z,3.53
2022-12-24T01:56:04.476Z,1.73
2022-12-24T01:58:34.480Z,5.97
2022-12-24T02:01:02.252Z,4.80
2022-12-24T02:03:30.041Z,4.70
2022-12-24T02:06:00.467Z,3.92
2022-12-24T02:08:39.821Z,3.15
2022-12-24T02:11:13.600Z,4.80
2022-12-24T02:13:42.834Z,4.25
2022-12-24T02:16:22.747Z,6.78
2022-12-24T02:19:00.715Z,5.72
2022-12-24T02:21:54.555Z,6.97
2022-12-24T02:24:50.251Z,2.65
2022-12-24T02:27:27.910Z,3.75
2022-12-24T02:30:04.684Z,3.88
2022-12-24T02:32:38.327Z,6.50
2022-12-24T02:35:11.640Z,3.75
2022-12-24T02:37:43.466Z,5.95
2022-12-24T02:40:16.756Z,5.40
2022-12-24T02:42:49.321Z,3.15
2022-12-24T02:45:21.856Z,7.03
2022-12-24T02:47:51.024Z,3.33
2022-12-24T02:50:19.368Z,4.05
2022-12-24T02:52:48.082Z,4.70
2022-12-24T02:55:18.838Z,7.43
2022-12-24T02:58:11.441Z,5.32
2022-12-24T03:00:57.261Z,6.00
2022-12-24T03:03:37.717Z,5.22
2022-12-24T03:06:14.819Z,4.72
2022-12-24T03:08:50.188Z,5.82
2022-12-24T03:11:19.556Z,4.63
2022-12-24T03:13:49.452Z,6.55
2022-12-24T03:16:24.714Z,6.90
2022-12-24T03:18:54.313Z,5.60
2022-12-24T03:21:27.017Z,8.57
2022-12-24T03:26:23.394Z,7.00
2022-12-24T03:28:51.191Z,7.65
2022-12-24T03:31:20.584Z,6.72
2022-12-24T03:33:48.557Z,7.38
2022-12-24T05:24:54.806Z,8.45
2022-12-24T05:27:38.753Z,6.45
2022-12-24T05:30:10.929Z,5.50
2022-12-24T05:33:03.687Z,5.43
2022-12-24T05:35:39.273Z,4.55
2022-12-24T05:38:22.016Z,7.18
2022-12-24T05:41:15.370Z,6.88
2022-12-24T05:44:01.609Z,5.95
2022-12-24T05:46:36.796Z,5.32
2022-12-24T05:49:26.457Z,6.57
2022-12-24T05:55:31.683Z,6.50
2022-12-24T05:58:06.649Z,7.78
2022-12-24T06:01:07.031Z,6.00
2022-12-24T06:03:44.435Z,5.75
2022-12-24T06:06:26.588Z,5.95
2022-12-24T06:09:08.021Z,4.25
2022-12-24T06:11:57.398Z,3.35
2022-12-24T06:14:41.212Z,5.15
2022-12-24T06:17:22.090Z,8.32
2022-12-24T06:20:33.925Z,6.15
2022-12-24T06:26:25.719Z,6.35
2022-12-24T06:29:18.393Z,6.35
2022-12-24T06:31:59.208Z,7.97
2022-12-24T06:34:41.675Z,9.80
2022-12-24T06:37:30.652Z,6.53
2022-12-24T06:40:13.784Z,10.05
2022-12-24T07:00:39.976Z,4.20
2022-12-24T07:03:07.543Z,7.40
2022-12-24T07:05:36.428Z,7.85
2022-12-24T07:08:04.073Z,7.15
2022-12-24T07:10:31.681Z,7.50
2022-12-24T07:12:59.219Z,5.40
2022-12-24T07:15:26.915Z,7.45
2022-12-24T07:17:54.543Z,7.03
2022-12-24T07:20:22.259Z,5.10
2022-12-24T07:22:52.839Z,4.75
2022-12-24T07:33:12.612Z,10.00
2022-12-24T07:38:18.771Z,5.30
2022-12-24T07:40:47.752Z,5.15
2022-12-24T07:43:15.309Z,4.80
2022-12-24T07:45:43.051Z,3.97
2022-12-24T07:48:10.560Z,9.38
2022-12-24T07:50:38.109Z,29.10
2022-12-24T07:53:05.809Z,33.97
2022-12-24T07:55:34.695Z,12.65
2022-12-24T07:58:02.198Z,7.05
2022-12-24T08:00:29.724Z,6.18
2022-12-24T08:02:58.620Z,4.43
2022-12-24T08:05:26.589Z,7.10
2022-12-24T08:07:54.118Z,6.65
2022-12-24T08:10:21.841Z,8.55
2022-12-24T08:12:50.708Z,3.00
2022-12-24T08:15:18.460Z,9.57
2022-12-24T08:17:46.021Z,5.53
2022-12-24T08:20:13.703Z,7.50
2022-12-24T08:22:41.288Z,10.10
2022-12-24T08:25:10.349Z,6.03
2022-12-24T08:27:37.956Z,6.03
2022-12-24T08:30:08.630Z,8.68
2022-12-24T08:32:36.236Z,6.75
2022-12-24T08:35:04.055Z,8.52
2022-12-24T08:37:31.532Z,7.47
2022-12-24T08:39:59.146Z,7.05
2022-12-24T08:42:26.746Z,5.07
2022-12-24T08:44:56.620Z,7.03
2022-12-24T08:47:25.501Z,6.20
2022-12-24T08:49:52.986Z,4.97
2022-12-24T08:52:20.586Z,7.07
2022-12-24T08:54:48.074Z,7.70
2022-12-24T08:57:15.681Z,8.27
2022-12-24T08:59:43.241Z,9.05
2022-12-24T09:02:10.939Z,6.28
2022-12-24T09:04:41.042Z,6.60
2022-12-24T09:07:08.924Z,6.00
2022-12-24T09:09:38.220Z,9.25
2022-12-24T09:12:06.988Z,7.82
2022-12-24T09:14:34.560Z,7.57
2022-12-24T09:17:02.160Z,8.60
2022-12-24T09:19:29.969Z,10.35
2022-12-24T09:21:58.881Z,7.57
2022-12-24T09:24:26.437Z,12.60
2022-12-24T09:26:57.712Z,5.72
2022-12-24T09:29:25.918Z,11.60
2022-12-24T09:31:55.130Z,10.80
2022-12-24T09:34:29.935Z,7.78
2022-12-24T09:37:00.656Z,5.45
2022-12-24T09:39:28.138Z,8.85
2022-12-24T09:42:09.080Z,7.90
2022-12-24T09:44:44.455Z,9.32
2022-12-24T09:47:22.247Z,6.95
2022-12-24T09:49:54.223Z,9.27
2022-12-24T09:52:31.671Z,8.90
2022-12-24T09:55:05.663Z,8.75
2022-12-24T09:57:38.369Z,6.63
2022-12-24T10:02:34.551Z,7.38
2022-12-24T10:05:02.087Z,7.32
2022-12-24T10:07:41.349Z,7.85
2022-12-24T10:10:19.831Z,8.45
2022-12-24T10:12:54.820Z,11.48
2022-12-24T10:15:29.384Z,9.52
2022-12-24T10:18:09.921Z,8.90
2022-12-24T10:20:46.209Z,7.97
2022-12-24T10:23:22.106Z,7.47
2022-12-24T10:25:57.234Z,7.63
2022-12-24T10:28:31.036Z,9.15
2022-12-24T10:31:03.764Z,5.95
2022-12-24T10:36:06.735Z,10.45
2022-12-24T10:38:38.859Z,7.43
2022-12-24T10:41:06.865Z,5.72
2022-12-24T10:43:34.647Z,8.57
2022-12-24T10:46:06.324Z,11.18
2022-12-24T10:48:48.303Z,13.73
2022-12-24T10:51:23.026Z,7.50
2022-12-24T10:53:57.348Z,11.20
2022-12-24T10:56:24.918Z,15.27
2022-12-24T10:58:54.533Z,7.60
2022-12-24T11:01:42.554Z,7.78
2022-12-24T11:04:17.315Z,7.85
2022-12-24T11:06:54.539Z,6.75
2022-12-24T11:09:25.776Z,8.18
2022-12-24T11:11:53.827Z,10.15
2022-12-24T11:14:22.376Z,4.55
2022-12-24T11:16:53.698Z,7.10
2022-12-24T11:19:29.309Z,6.82
2022-12-24T11:22:04.475Z,5.03
2022-12-24T11:24:35.186Z,7.90
2022-12-24T11:27:30.241Z,6.40
2022-12-24T11:30:29.927Z,6.93
2022-12-24T11:33:19.638Z,8.25
2022-12-24T11:35:50.833Z,11.52
2022-12-24T11:38:22.505Z,7.30
2022-12-24T11:40:58.366Z,7.32
2022-12-24T11:43:44.226Z,8.05
2022-12-24T11:46:35.759Z,7.70
2022-12-24T11:49:16.370Z,10.15
2022-12-24T11:52:03.622Z,5.90
2022-12-24T11:54:35.243Z,8.05
2022-12-24T11:57:04.896Z,7.95
2022-12-24T11:59:37.599Z,10.32
2022-12-24T12:04:45.148Z,7.15
2022-12-24T12:07:16.047Z,7.90
2022-12-24T12:09:47.259Z,8.93
2022-12-24T12:12:19.956Z,10.48
2022-12-24T12:17:31.196Z,9.20
2022-12-24T12:20:04.034Z,7.82
2022-12-24T12:22:39.258Z,6.68
2022-12-24T12:25:18.547Z,9.05
2022-12-24T12:27:50.637Z,9.27
2022-12-24T12:30:20.792Z,9.73
2022-12-24T12:32:54.528Z,9.85
2022-12-24T12:35:26.790Z,5.32
2022-12-24T12:37:58.893Z,6.85
2022-12-24T12:40:40.166Z,11.18
2022-12-24T12:43:24.063Z,9.30
2022-12-24T12:45:58.193Z,10.43
2022-12-24T12:48:43.646Z,9.30
2022-12-24T12:51:21.452Z,8.77
2022-12-24T12:54:01.556Z,9.30
2022-12-24T12:56:32.217Z,6.65
2022-12-24T12:59:05.073Z,6.53
2022-12-24T13:01:43.924Z,10.00
2022-12-24T13:04:52.066Z,5.95
2022-12-24T13:07:43.562Z,9.52
2022-12-24T13:10:32.047Z,6.97
2022-12-24T13:13:20.382Z,7.18
2022-12-24T13:16:14.436Z,5.63
2022-12-24T13:18:52.312Z,9.63
2022-12-24T13:21:23.457Z,9.00
2022-12-24T13:23:51.366Z,9.10
2022-12-24T13:26:19.578Z,11.85
2022-12-24T13:28:47.109Z,7.57
2022-12-24T13:31:29.968Z,6.68
2022-12-24T13:34:03.439Z,9.27
2022-12-24T13:37:03.867Z,7.55
2022-12-24T13:40:17.844Z,11.65
2022-12-24T13:43:07.104Z,6.35
2022-12-24T13:45:48.007Z,9.93
2022-12-24T13:48:29.812Z,6.90
2022-12-24T13:51:00.337Z,8.38
2022-12-24T13:53:32.461Z,9.48
2022-12-24T13:56:07.520Z,9.25
2022-12-24T13:58:37.408Z,10.13
2022-12-24T14:01:09.558Z,11.30
2022-12-24T14:03:46.277Z,13.70
2022-12-24T14:06:24.038Z,8.40
2022-12-24T14:08:55.576Z,7.68
2022-12-24T14:11:25.366Z,8.88
2022-12-24T14:14:12.560Z,4.55
2022-12-24T14:16:46.680Z,13.38
2022-12-24T14:19:20.161Z,6.38
2022-12-24T14:21:55.821Z,8.00
2022-12-24T14:24:26.334Z,9.75
2022-12-24T14:26:58.019Z,10.32
2022-12-24T14:29:29.934Z,10.05
2022-12-24T14:32:00.014Z,14.65
2022-12-24T14:34:29.492Z,9.70
2022-12-24T14:36:57.591Z,11.75
2022-12-24T14:39:29.376Z,11.95
2022-12-24T14:42:05.618Z,10.63
2022-12-24T14:44:42.503Z,12.85
2022-12-24T14:47:21.997Z,11.45
2022-12-24T14:50:17.011Z,12.40
2022-12-24T14:53:09.375Z,13.57
2022-12-24T14:55:42.508Z,12.30
2022-12-24T14:58:25.728Z,11.87
2022-12-24T15:00:55.654Z,8.93
2022-12-24T15:03:25.267Z,9.32
2022-12-24T15:05:56.461Z,13.35
2022-12-24T15:08:30.364Z,12.43
2022-12-24T15:11:02.681Z,7.63
2022-12-24T15:13:36.718Z,9.57
2022-12-24T15:16:06.117Z,9.45
2022-12-24T15:18:37.970Z,9.05
2022-12-24T15:21:14.686Z,9.23
2022-12-24T15:23:46.965Z,9.55
2022-12-24T15:26:23.363Z,12.00
2022-12-24T15:28:55.113Z,11.90
2022-12-24T15:31:27.595Z,7.47
2022-12-24T15:33:56.796Z,11.85
2022-12-24T15:47:09.711Z,9.50
2022-12-24T15:49:37.953Z,10.10
2022-12-24T15:52:07.300Z,9.30
2022-12-24T15:54:35.247Z,12.60
2022-12-24T15:57:14.478Z,10.77
2022-12-24T15:59:42.112Z,11.02
2022-12-24T16:02:33.928Z,12.02
2022-12-24T16:05:31.682Z,13.88
2022-12-24T16:08:10.922Z,12.52
2022-12-24T16:10:41.763Z,15.82
2022-12-24T16:13:15.745Z,12.60
2022-12-24T16:15:48.315Z,12.35
2022-12-24T16:18:24.884Z,14.18
2022-12-24T16:20:54.134Z,14.18
2022-12-24T16:23:24.706Z,16.15
2022-12-24T16:25:53.750Z,14.20
2022-12-24T16:28:23.240Z,16.35
2022-12-24T16:30:51.208Z,21.13
2022-12-24T16:33:21.767Z,16.20
2022-12-24T16:35:49.497Z,15.25
2022-12-24T16:38:17.324Z,13.35
2022-12-24T16:40:45.143Z,13.90
2022-12-24T16:43:30.461Z,14.60
2022-12-24T16:46:02.037Z,16.30
2022-12-24T16:48:31.275Z,10.30
2022-12-24T16:50:58.732Z,12.32
2022-12-24T16:53:26.269Z,12.13
2022-12-24T16:55:53.781Z,11.90
2022-12-24T16:58:22.149Z,8.32
2022-12-24T17:00:49.673Z,12.52
2022-12-24T17:03:17.346Z,10.27
2022-12-24T17:05:46.259Z,12.75
2022-12-24T17:08:14.885Z,13.00
2022-12-24T17:10:50.537Z,14.70
2022-12-24T17:13:18.049Z,11.43
2022-12-24T17:15:45.639Z,10.52
2022-12-24T17:18:13.173Z,12.05
2022-12-24T17:20:40.690Z,13.63
2022-12-24T17:23:09.535Z,13.02
2022-12-24T17:25:37.248Z,9.40
2022-12-24T17:28:05.020Z,10.77
2022-12-24T17:30:32.545Z,9.25
2022-12-24T17:33:00.210Z,13.90
2022-12-24T17:35:28.114Z,14.85
2022-12-24T17:37:55.651Z,11.00
2022-12-24T17:40:24.486Z,11.23
2022-12-24T17:42:52.524Z,10.55
2022-12-24T17:45:20.293Z,7.72
2022-12-24T17:47:47.843Z,15.63
2022-12-24T17:50:15.631Z,7.70
2022-12-24T17:52:43.230Z,10.68
2022-12-24T17:55:11.149Z,10.13
2022-12-24T17:57:40.005Z,6.18
2022-12-24T18:00:08.870Z,7.25
2022-12-24T18:02:36.706Z,10.57
2022-12-24T18:05:04.735Z,14.23
2022-12-24T18:07:32.223Z,10.82
2022-12-24T18:09:59.984Z,12.20
2022-12-24T18:12:27.530Z,6.82
2022-12-24T18:14:56.460Z,7.85
2022-12-24T18:17:23.956Z,7.38
2022-12-24T18:19:51.687Z,7.57
2022-12-24T18:22:19.252Z,7.50
2022-12-24T18:24:46.706Z,11.10
2022-12-24T18:27:14.193Z,5.85
2022-12-24T18:29:42.435Z,6.35
2022-12-24T18:32:12.860Z,6.35
2022-12-24T18:34:40.361Z,4.93
2022-12-24T18:37:07.929Z,5.75
2022-12-24T18:39:35.651Z,6.63
2022-12-24T18:42:03.199Z,4.13
2022-12-24T18:44:30.766Z,4.88
2022-12-24T18:46:58.639Z,5.55
2022-12-24T18:49:27.697Z,4.10
2022-12-24T18:51:55.343Z,5.28
2022-12-24T18:54:22.903Z,3.80
2022-12-24T18:56:51.533Z,7.13
2022-12-24T18:59:19.350Z,8.95
2022-12-24T19:01:46.939Z,4.88
2022-12-24T19:04:14.976Z,6.55
2022-12-24T19:06:50.739Z,5.00
2022-12-24T19:09:20.433Z,4.00
2022-12-24T19:11:48.187Z,4.88
2022-12-24T19:14:16.195Z,3.90
2022-12-24T19:16:43.723Z,4.55
2022-12-24T19:19:12.475Z,8.10
2022-12-24T19:21:40.034Z,4.90
2022-12-24T19:24:10.593Z,5.45
2022-12-24T19:26:38.561Z,6.88
2022-12-24T19:29:06.123Z,6.53
2022-12-24T19:31:33.785Z,5.50
2022-12-24T19:34:02.090Z,5.97
2022-12-24T19:36:30.858Z,3.65
2022-12-24T19:38:59.222Z,4.45
2022-12-24T19:41:29.406Z,5.35
2022-12-24T19:43:59.042Z,4.50
2022-12-24T19:46:28.185Z,4.65
2022-12-24T19:48:57.297Z,3.63
2022-12-24T19:51:26.108Z,4.43
2022-12-24T19:53:55.025Z,7.30
2022-12-24T19:56:24.192Z,3.50
2022-12-24T19:58:53.703Z,3.88
2022-12-24T20:01:23.180Z,4.05
2022-12-24T20:03:53.103Z,3.92
2022-12-24T20:06:22.817Z,3.65
2022-12-24T20:08:50.791Z,4.32
2022-12-24T20:11:22.195Z,4.85
2022-12-24T20:13:49.958Z,8.07
2022-12-24T20:16:22.596Z,3.45
2022-12-24T20:18:52.752Z,3.70
2022-12-24T20:21:20.846Z,4.57
2022-12-24T20:23:48.364Z,4.32
2022-12-24T20:26:18.075Z,3.65
2022-12-24T20:28:45.991Z,4.45
2022-12-24T20:31:15.918Z,3.78
2022-12-24T20:33:46.223Z,4.68
2022-12-24T20:36:15.835Z,4.38
2022-12-24T20:38:43.804Z,3.47
2022-12-24T20:41:12.244Z,5.90
2022-12-24T20:43:47.339Z,11.25
2022-12-24T20:46:19.230Z,10.45
2022-12-24T20:48:48.524Z,10.90
2022-12-24T20:51:23.671Z,8.35
2022-12-24T20:53:53.183Z,10.18
2022-12-24T20:56:20.767Z,4.10
2022-12-24T20:58:48.296Z,4.45
2022-12-24T21:01:17.896Z,5.30
2022-12-24T21:03:45.571Z,4.25
2022-12-24T21:06:15.619Z,5.80
2022-12-24T21:08:43.166Z,4.90
2022-12-24T21:11:27.369Z,6.35
2022-12-24T21:13:54.955Z,5.00
2022-12-24T21:16:22.525Z,4.55
2022-12-24T21:18:50.450Z,5.75
2022-12-24T21:21:19.388Z,4.72
2022-12-24T21:23:46.916Z,5.78
2022-12-24T21:26:14.479Z,3.97
2022-12-24T21:28:42.627Z,4.43
2022-12-24T21:31:11.133Z,3.97
2022-12-24T21:33:38.915Z,4.38
2022-12-24T21:36:06.984Z,6.70
2022-12-24T21:38:36.244Z,3.17
2022-12-24T21:41:05.762Z,5.10
2022-12-24T21:43:34.386Z,3.65
2022-12-24T21:46:02.181Z,3.83
2022-12-24T21:54:16.591Z,4.13
2022-12-24T22:07:50.239Z,5.50
2022-12-24T22:29:06.723Z,4.73
2022-12-24T22:31:34.307Z,6.20
2022-12-24T22:34:01.946Z,6.28
2022-12-24T22:36:29.582Z,8.60
2022-12-24T22:38:57.115Z,5.70
2022-12-24T22:41:24.624Z,5.65
2022-12-24T22:54:57.670Z,4.20
2022-12-24T23:08:14.335Z,2.43
2022-12-24T23:10:43.147Z,3.85
2022-12-24T23:13:28.011Z,3.30
2022-12-24T23:15:55.506Z,2.88
2022-12-24T23:18:23.017Z,3.38
2022-12-24T23:20:50.503Z,2.50
2022-12-24T23:36:48.540Z,4.20
2022-12-24T23:39:16.261Z,6.20
2022-12-24T23:41:43.861Z,2.67
2022-12-24T23:44:11.377Z,5.63
2022-12-24T23:46:38.934Z,3.90
2022-12-24T23:49:06.780Z,3.50
